Time;durP1;ratioP1;P1;durP2;ratioP2;P2;SDS_P1;SDS_P2;PMS_P1;PMS_P2;Temp;Humidity;BMP_temperature;BMP_pressure;BME280_temperature;BME280_humidity;BME280_pressure;Samples;Min_cycle;Max_cycle;Signal;HPM_P1;HPM_P2
2023/06/12 00:02:20;;;;;;;;;;;;;;;21.70;42.29;101448.88;5050463;28;1141;-75
2023/06/12 00:04:45;;;;;;;;;;;;;;;21.67;42.21;101451.06;5050822;28;1965;-75
2023/06/12 00:07:11;;;;;;;;;;;;;;;21.59;42.35;101457.25;5029896;28;1453;-75
2023/06/12 00:09:36;;;;;;;;;;;;;;;21.55;42.58;101450.69;5048499;28;1509;-75
2023/06/12 00:12:02;;;;;;;;;;;;;;;21.52;42.82;101450.25;5050244;28;1315;-77
2023/06/12 00:14:27;;;;;;;;;;;;;;;21.47;42.58;101442.88;5047270;28;1456;-75
2023/06/12 00:16:52;;;;;;;;;;;;;;;21.46;42.89;101446.53;5031767;28;1406;-75
2023/06/12 00:19:18;;;;;;;;;;;;;;;21.46;42.71;101443.88;5058001;28;1189;-75
2023/06/12 00:21:43;;;;;;;;;;;;;;;21.43;43.04;101446.88;5048235;28;1411;-76
2023/06/12 00:24:09;;;;;;;;;;;;;;;21.37;43.07;101458.97;5023586;28;2343;-75
2023/06/12 00:26:35;;;;;;;;;;;;;;;21.35;43.05;101465.44;5051934;28;1197;-75
2023/06/12 00:29:00;;;;;;;;;;;;;;;21.32;43.20;101460.50;5045544;28;1730;-75
2023/06/12 00:31:25;;;;;;;;;;;;;;;21.31;43.79;101456.22;5050247;28;1214;-75
2023/06/12 00:33:50;;;;;;;;;;;;;;;21.28;43.20;101453.94;5031969;28;1628;-75
2023/06/12 00:36:16;;;;;;;;;;;;;;;21.23;43.41;101456.28;5055437;28;1270;-81
2023/06/12 00:38:41;;;;;;;;;;;;;;;21.23;43.25;101462.38;5052694;28;1624;-77
2023/06/12 00:41:06;;;;;;;;;;;;;;;21.14;43.39;101453.72;5021020;28;1645;-75
2023/06/12 00:43:31;;;;;;;;;;;;;;;21.09;43.51;101449.97;5028412;28;1957;-76
2023/06/12 00:45:57;;;;;;;;;;;;;;;21.03;43.50;101443.59;5041732;28;1320;-75
2023/06/12 00:48:22;;;;;;;;;;;;;;;21.01;43.52;101442.97;5048038;28;1185;-75
2023/06/12 00:50:47;;;;;;;;;;;;;;;20.97;43.97;101446.94;5050575;28;1082;-76
2023/06/12 00:53:12;;;;;;;;;;;;;;;20.93;43.73;101440.38;5043531;28;1230;-75
2023/06/12 00:55:38;;;;;;;;;;;;;;;20.88;43.65;101448.03;5050937;28;1613;-76
2023/06/12 00:58:03;;;;;;;;;;;;;;;20.85;44.08;101448.38;5028670;28;1205;-75
2023/06/12 01:00:28;;;;;;;;;;;;;;;20.80;44.11;101448.91;5032578;28;1224;-75
2023/06/12 01:02:55;;;;;;;;;;;;;;;20.74;44.12;101456.69;5050409;28;1971;-76
2023/06/12 01:05:32;;;;;;;;;;;;;;;20.69;44.23;101450.13;5041121;28;1321;-75
2023/06/12 01:07:58;;;;;;;;;;;;;;;20.65;44.20;101442.78;5052330;28;1085;-76
2023/06/12 01:10:23;;;;;;;;;;;;;;;20.58;44.61;101442.63;5051099;28;1385;-75
2023/06/12 01:12:50;;;;;;;;;;;;;;;20.56;44.87;101443.81;5043121;28;1321;-75
2023/06/12 01:15:15;;;;;;;;;;;;;;;20.55;44.56;101443.00;5047043;28;1343;-75
2023/06/12 01:17:41;;;;;;;;;;;;;;;20.48;44.92;101442.06;5046124;28;1321;-76
2023/06/12 01:20:13;;;;;;;;;;;;;;;20.48;44.89;101442.06;5028443;28;1585;-75
2023/06/12 01:22:52;;;;;;;;;;;;;;;20.48;44.70;101447.34;5026076;28;1886;-75
2023/06/12 01:25:23;;;;;;;;;;;;;;;20.48;45.30;101447.34;5042054;28;1267;-75
2023/06/12 01:27:51;;;;;;;;;;;;;;;20.46;44.91;101449.31;5046177;28;1455;-76
2023/06/12 01:30:27;;;;;;;;;;;;;;;20.47;44.83;101455.41;5036077;28;1402;-75
2023/06/12 01:32:56;;;;;;;;;;;;;;;20.43;44.83;101454.91;5033247;28;1344;-76
2023/06/12 01:35:24;;;;;;;;;;;;;;;20.41;45.18;101446.34;5029541;28;1283;-75
2023/06/12 01:37:54;;;;;;;;;;;;;;;20.38;45.34;101454.63;5043321;28;1185;-75
2023/06/12 01:40:21;;;;;;;;;;;;;;;20.36;45.15;101451.34;5049511;28;1248;-75
2023/06/12 01:42:46;;;;;;;;;;;;;;;20.32;45.42;101452.66;5049432;28;1917;-76
2023/06/12 01:45:12;;;;;;;;;;;;;;;20.29;45.28;101464.34;5049360;28;1265;-76
2023/06/12 01:47:37;;;;;;;;;;;;;;;20.26;45.33;101453.38;5051840;28;1148;-75
2023/06/12 01:50:03;;;;;;;;;;;;;;;20.22;45.44;101462.59;5047904;28;1270;-75
2023/06/12 01:52:28;;;;;;;;;;;;;;;20.16;45.50;101453.56;5046161;28;1615;-75
2023/06/12 01:54:57;;;;;;;;;;;;;;;20.09;45.60;101453.44;5051035;28;1507;-75
2023/06/12 01:57:23;;;;;;;;;;;;;;;20.07;45.82;101458.06;5054632;28;1120;-75
2023/06/12 01:59:48;;;;;;;;;;;;;;;20.05;46.16;101457.41;5053021;28;1225;-75
2023/06/12 02:02:14;;;;;;;;;;;;;;;20.02;45.95;101465.66;5054813;28;1203;-75
2023/06/12 02:04:39;;;;;;;;;;;;;;;19.97;46.19;101460.09;5031662;28;2315;-76
2023/06/12 02:07:05;;;;;;;;;;;;;;;19.91;46.58;101460.78;5035179;28;1299;-75
2023/06/12 02:09:30;;;;;;;;;;;;;;;19.85;46.74;101450.94;5039721;28;1357;-76
2023/06/12 02:11:55;;;;;;;;;;;;;;;19.77;46.70;101448.31;5048359;28;1358;-75
2023/06/12 02:14:20;;;;;;;;;;;;;;;19.75;46.72;101452.94;5057168;28;1458;-75
2023/06/12 02:16:46;;;;;;;;;;;;;;;19.71;46.93;101454.25;5037296;28;1492;-75
2023/06/12 02:19:11;;;;;;;;;;;;;;;19.67;47.48;101459.06;5038096;28;1557;-75
2023/06/12 02:21:36;;;;;;;;;;;;;;;19.63;47.39;101453.31;5052870;28;1431;-75
2023/06/12 02:24:02;;;;;;;;;;;;;;;19.58;47.54;101455.63;5053072;28;1894;-75
2023/06/12 02:26:27;;;;;;;;;;;;;;;19.54;47.81;101453.44;5057594;28;1308;-75
2023/06/12 02:29:05;;;;;;;;;;;;;;;19.46;48.01;101456.94;5050818;28;1745;-75
2023/06/12 02:31:30;;;;;;;;;;;;;;;19.41;48.28;101448.72;5057489;28;1424;-75
2023/06/12 02:33:55;;;;;;;;;;;;;;;19.38;48.73;101449.03;5056842;28;1330;-75
2023/06/12 02:36:21;;;;;;;;;;;;;;;19.35;48.66;101452.84;5051394;28;1306;-76
2023/06/12 02:38:46;;;;;;;;;;;;;;;19.32;49.12;101457.59;5060038;28;1236;-75
2023/06/12 02:41:12;;;;;;;;;;;;;;;19.28;48.98;101459.75;5034852;28;1177;-75
2023/06/12 02:43:38;;;;;;;;;;;;;;;19.25;49.28;101462.72;5040552;28;1965;-75
2023/06/12 02:46:03;;;;;;;;;;;;;;;19.22;49.31;101460.44;5030759;28;1107;-75
2023/06/12 02:48:28;;;;;;;;;;;;;;;19.18;49.54;101455.66;5048198;28;1075;-75
2023/06/12 02:50:53;;;;;;;;;;;;;;;19.16;49.70;101455.00;5044906;28;1076;-75
2023/06/12 02:53:19;;;;;;;;;;;;;;;19.13;49.80;101450.06;5044738;28;1412;-75
2023/06/12 02:55:44;;;;;;;;;;;;;;;19.10;49.99;101452.06;5022196;28;1319;-75
2023/06/12 02:58:09;;;;;;;;;;;;;;;19.08;50.14;101453.19;5032980;28;1152;-76
2023/06/12 03:00:35;;;;;;;;;;;;;;;19.06;50.31;101450.75;5031739;28;1199;-75
2023/06/12 03:03:00;;;;;;;;;;;;;;;19.01;50.35;101450.41;5029256;28;1890;-77
2023/06/12 03:05:26;;;;;;;;;;;;;;;18.99;50.36;101448.94;5026937;28;1189;-75
2023/06/12 03:07:52;;;;;;;;;;;;;;;18.94;50.65;101449.44;5052061;28;1421;-77
2023/06/12 03:10:17;;;;;;;;;;;;;;;18.89;50.74;101449.09;5033291;28;1185;-75
2023/06/12 03:12:43;;;;;;;;;;;;;;;18.86;50.64;101443.34;5043911;28;1348;-78
2023/06/12 03:15:08;;;;;;;;;;;;;;;18.81;50.98;101441.22;5051565;28;1566;-76
2023/06/12 03:17:34;;;;;;;;;;;;;;;18.80;51.15;101445.63;5036394;28;1218;-76
2023/06/12 03:19:59;;;;;;;;;;;;;;;18.77;51.06;101451.22;5055358;28;1481;-74
2023/06/12 03:22:24;;;;;;;;;;;;;;;18.75;51.20;101460.25;5046456;28;1489;-75
2023/06/12 03:24:53;;;;;;;;;;;;;;;18.71;51.74;101448.44;5055975;28;1901;-75
2023/06/12 03:27:18;;;;;;;;;;;;;;;18.68;51.69;101446.13;5049316;28;1288;-75
2023/06/12 03:29:45;;;;;;;;;;;;;;;18.68;51.42;101444.31;5037872;28;1269;-75
2023/06/12 03:32:10;;;;;;;;;;;;;;;18.66;51.71;101451.53;5048541;28;1315;-75
2023/06/12 03:34:36;;;;;;;;;;;;;;;18.68;51.71;101448.75;5049489;28;1362;-75
2023/06/12 03:37:01;;;;;;;;;;;;;;;18.66;52.05;101443.63;5039808;28;1308;-75
2023/06/12 03:39:26;;;;;;;;;;;;;;;18.65;51.73;101456.94;5037175;28;1343;-77
2023/06/12 03:41:56;;;;;;;;;;;;;;;18.62;52.12;101452.00;5050266;28;1555;-77
2023/06/12 03:44:21;;;;;;;;;;;;;;;18.63;51.82;101464.16;5053307;28;1965;-75
2023/06/12 03:46:46;;;;;;;;;;;;;;;18.61;51.92;101455.63;5052355;28;1742;-76
2023/06/12 03:49:12;;;;;;;;;;;;;;;18.60;52.05;101459.22;5027141;28;1823;-77
2023/06/12 03:51:37;;;;;;;;;;;;;;;18.56;52.08;101464.81;5043863;28;1263;-75
2023/06/12 03:54:02;;;;;;;;;;;;;;;18.56;52.28;101464.81;5025674;28;1469;-75
2023/06/12 03:56:28;;;;;;;;;;;;;;;18.53;52.29;101470.38;5046594;28;1961;-75
2023/06/12 03:58:53;;;;;;;;;;;;;;;18.54;52.00;101472.03;5043700;28;1148;-74
2023/06/12 04:01:18;;;;;;;;;;;;;;;18.49;51.97;101461.19;5041162;28;1588;-74
2023/06/12 04:03:45;;;;;;;;;;;;;;;18.49;52.12;101469.06;5018928;28;1999;-75
2023/06/12 04:06:11;;;;;;;;;;;;;;;18.48;52.02;101472.69;5042131;28;1237;-75
2023/06/12 04:08:37;;;;;;;;;;;;;;;18.48;51.80;101472.69;5043554;28;1360;-75
2023/06/12 04:11:03;;;;;;;;;;;;;;;18.46;51.97;101474.63;5030954;28;1751;-74
2023/06/12 04:13:28;;;;;;;;;;;;;;;18.46;51.85;101479.88;5028979;28;1261;-75
2023/06/12 04:15:55;;;;;;;;;;;;;;;18.48;51.74;101483.19;5042373;28;1638;-75
2023/06/12 04:18:21;;;;;;;;;;;;;;;18.48;51.75;101477.94;5041780;28;1692;-75
2023/06/12 04:20:46;;;;;;;;;;;;;;;18.46;51.67;101469.38;5046912;28;994;-75
2023/06/12 04:23:11;;;;;;;;;;;;;;;18.48;51.57;101472.69;5049199;28;1902;-74
2023/06/12 04:25:37;;;;;;;;;;;;;;;18.45;51.77;101478.25;5045959;28;1132;-75
2023/06/12 04:28:03;;;;;;;;;;;;;;;18.46;51.50;101484.31;5048004;28;1627;-75
2023/06/12 04:30:31;;;;;;;;;;;;;;;18.46;51.66;101477.25;5046278;28;1404;-75
2023/06/12 04:32:56;;;;;;;;;;;;;;;18.47;51.52;101481.53;5051444;28;1214;-75
2023/06/12 04:35:22;;;;;;;;;;;;;;;18.49;51.61;101482.19;5039460;28;1315;-75
2023/06/12 04:37:48;;;;;;;;;;;;;;;18.53;51.64;101482.72;5049956;28;1349;-75
2023/06/12 04:40:14;;;;;;;;;;;;;;;18.53;51.60;101475.66;5029772;28;1532;-74
2023/06/12 04:42:41;;;;;;;;;;;;;;;18.56;51.36;101475.31;5047459;28;1313;-75
2023/06/12 04:45:08;;;;;;;;;;;;;;;18.57;51.32;101476.13;5055876;28;1894;-75
2023/06/12 04:47:36;;;;;;;;;;;;;;;18.56;51.31;101480.56;5045262;28;1500;-75
2023/06/12 04:50:01;;;;;;;;;;;;;;;18.61;51.37;101487.16;5051224;28;1619;-75
2023/06/12 04:52:27;;;;;;;;;;;;;;;18.61;51.43;101476.63;5053504;28;1161;-75
2023/06/12 04:54:52;;;;;;;;;;;;;;;18.62;51.33;101478.28;5047955;28;1265;-75
2023/06/12 04:57:18;;;;;;;;;;;;;;;18.63;51.16;101469.41;5040037;28;1444;-75
2023/06/12 04:59:45;;;;;;;;;;;;;;;18.66;51.57;101479.59;5040250;28;1254;-75
2023/06/12 05:02:10;;;;;;;;;;;;;;;18.69;51.23;101481.91;5027484;28;1327;-75
2023/06/12 05:04:37;;;;;;;;;;;;;;;18.71;51.51;101478.16;5046401;28;1971;-75
2023/06/12 05:07:03;;;;;;;;;;;;;;;18.75;51.55;101483.91;5042889;28;1521;-75
2023/06/12 05:09:29;;;;;;;;;;;;;;;18.78;51.27;101489.66;5043222;28;1129;-75
2023/06/12 05:11:54;;;;;;;;;;;;;;;18.83;51.40;101490.00;5050687;28;1062;-75
2023/06/12 05:14:19;;;;;;;;;;;;;;;18.90;51.60;101487.53;5042336;28;1444;-75
2023/06/12 05:16:46;;;;;;;;;;;;;;;18.96;51.77;101489.50;5046279;28;1235;-75
2023/06/12 05:19:12;;;;;;;;;;;;;;;18.96;51.57;101492.13;5052232;28;1176;-76
2023/06/12 05:21:39;;;;;;;;;;;;;;;19.00;51.45;101498.72;5050445;28;1253;-76
2023/06/12 05:24:04;;;;;;;;;;;;;;;19.03;51.71;101487.88;5049179;28;1906;-75
2023/06/12 05:26:29;;;;;;;;;;;;;;;19.04;51.74;101501.84;5055084;28;1287;-76
2023/06/12 05:28:55;;;;;;;;;;;;;;;19.08;51.85;101496.09;5055129;28;1335;-75
2023/06/12 05:31:20;;;;;;;;;;;;;;;19.09;51.62;101497.72;5035842;28;1313;-75
2023/06/12 05:33:45;;;;;;;;;;;;;;;19.12;52.13;101495.78;5052449;28;1319;-75
2023/06/12 05:36:10;;;;;;;;;;;;;;;19.14;51.97;101491.16;5040838;28;1214;-77
2023/06/12 05:38:37;;;;;;;;;;;;;;;19.17;52.14;101496.91;5046158;28;1428;-75
2023/06/12 05:41:02;;;;;;;;;;;;;;;19.21;51.51;101489.50;5059658;28;1322;-75
2023/06/12 05:43:27;;;;;;;;;;;;;;;19.26;51.81;101492.47;5044312;28;1901;-77
2023/06/12 05:45:53;;;;;;;;;;;;;;;19.29;51.84;101497.41;5039419;28;1823;-76
2023/06/12 05:48:18;;;;;;;;;;;;;;;19.36;51.60;101488.66;5047704;28;1328;-76
2023/06/12 05:50:44;;;;;;;;;;;;;;;19.44;51.52;101489.63;5053233;28;1241;-76
2023/06/12 05:53:09;;;;;;;;;;;;;;;19.48;51.27;101486.50;5053866;28;1340;-77
2023/06/12 05:55:35;;;;;;;;;;;;;;;19.57;51.46;101492.59;5028408;28;1353;-76
2023/06/12 05:58:00;;;;;;;;;;;;;;;19.62;51.19;101487.69;5030421;28;1278;-76
2023/06/12 06:00:25;;;;;;;;;;;;;;;19.70;51.06;101485.03;5043206;28;1326;-76
2023/06/12 06:02:50;;;;;;;;;;;;;;;19.77;51.44;101485.16;5027858;28;1996;-76
2023/06/12 06:05:16;;;;;;;;;;;;;;;19.80;51.90;101479.56;5038868;28;1107;-77
2023/06/12 06:07:41;;;;;;;;;;;;;;;19.91;51.71;101487.09;5045098;28;1084;-78
2023/06/12 06:10:07;;;;;;;;;;;;;;;19.99;51.35;101489.69;5050540;28;1524;-76
2023/06/12 06:12:32;;;;;;;;;;;;;;;20.06;50.64;101485.38;5045373;28;1388;-75
2023/06/12 06:14:57;;;;;;;;;;;;;;;20.11;50.72;101483.06;5050871;28;1199;-76
2023/06/12 06:17:23;;;;;;;;;;;;;;;20.21;50.95;101482.84;5040901;28;1038;-77
2023/06/12 06:19:49;;;;;;;;;;;;;;;20.29;50.54;101484.63;5050965;28;1322;-77
2023/06/12 06:22:17;;;;;;;;;;;;;;;20.38;50.58;101479.13;5045660;28;1433;-75
2023/06/12 06:24:42;;;;;;;;;;;;;;;20.48;50.62;101488.69;5028492;28;1911;-77
2023/06/12 06:27:08;;;;;;;;;;;;;;;20.55;50.28;101490.44;5047863;28;1280;-76
2023/06/12 06:29:33;;;;;;;;;;;;;;;20.64;50.40;101492.03;5051996;28;1649;-75
2023/06/12 06:31:58;;;;;;;;;;;;;;;20.75;49.94;101489.97;5035935;28;1249;-75
2023/06/12 06:34:25;;;;;;;;;;;;;;;20.87;49.82;101493.84;5051875;28;1262;-75
2023/06/12 06:36:50;;;;;;;;;;;;;;;20.97;49.45;101483.88;5050168;28;1241;-75
2023/06/12 06:39:16;;;;;;;;;;;;;;;21.07;49.23;101492.38;5051620;28;1225;-75
2023/06/12 06:41:41;;;;;;;;;;;;;;;21.16;49.03;101493.94;5046830;28;1322;-77
2023/06/12 06:44:06;;;;;;;;;;;;;;;21.29;48.63;101495.16;5046207;28;1895;-81
2023/06/12 06:46:31;;;;;;;;;;;;;;;21.34;47.79;101484.91;5030624;28;1209;-76
2023/06/12 06:48:57;;;;;;;;;;;;;;;21.40;47.80;101490.28;5038366;28;1180;-75
2023/06/12 06:51:22;;;;;;;;;;;;;;;21.49;47.42;101488.38;5045272;28;1341;-75
2023/06/12 06:53:47;;;;;;;;;;;;;;;21.57;47.87;101488.31;5054068;28;1119;-75
2023/06/12 06:56:12;;;;;;;;;;;;;;;21.70;47.43;101480.56;5037012;28;1002;-75
2023/06/12 06:58:37;;;;;;;;;;;;;;;21.83;47.16;101484.38;5049703;28;1487;-76
2023/06/12 07:01:03;;;;;;;;;;;;;;;21.90;47.36;101485.28;5056219;28;1310;-75
2023/06/12 07:03:28;;;;;;;;;;;;;;;22.00;45.82;101485.81;5045797;28;1894;-75
2023/06/12 07:05:53;;;;;;;;;;;;;;;22.11;46.48;101488.03;5025834;28;1168;-76
2023/06/12 07:08:18;;;;;;;;;;;;;;;22.20;45.54;101492.22;5044063;28;1099;-75
2023/06/12 07:10:44;;;;;;;;;;;;;;;22.27;45.62;101495.75;5042232;28;1413;-75
2023/06/12 07:13:09;;;;;;;;;;;;;;;22.36;45.70;101492.97;5038966;28;1146;-76
2023/06/12 07:15:34;;;;;;;;;;;;;;;22.47;45.47;101487.19;5043765;28;1150;-75
2023/06/12 07:17:59;;;;;;;;;;;;;;;22.55;44.95;101492.38;5042663;28;1299;-75
2023/06/12 07:20:24;;;;;;;;;;;;;;;22.64;44.81;101488.59;5044487;28;1291;-75
2023/06/12 07:22:50;;;;;;;;;;;;;;;22.72;44.66;101485.03;5049988;28;1502;-75
2023/06/12 07:25:15;;;;;;;;;;;;;;;22.84;44.85;101488.00;5025925;28;1886;-75
2023/06/12 07:27:40;;;;;;;;;;;;;;;22.91;44.75;101483.59;5047558;28;1555;-76
2023/06/12 07:30:06;;;;;;;;;;;;;;;22.99;44.76;101486.09;5051709;28;1549;-75
2023/06/12 07:32:31;;;;;;;;;;;;;;;23.08;44.02;101495.56;5050620;28;1195;-75
2023/06/12 07:34:56;;;;;;;;;;;;;;;23.15;43.62;101496.41;5044893;28;1234;-77
2023/06/12 07:37:22;;;;;;;;;;;;;;;23.24;44.16;101495.28;5030865;28;1283;-76
2023/06/12 07:39:48;;;;;;;;;;;;;;;23.30;44.23;101494.50;5046605;28;1704;-76
2023/06/12 07:42:13;;;;;;;;;;;;;;;23.38;43.60;101485.59;5053853;28;1079;-76
2023/06/12 07:44:40;;;;;;;;;;;;;;;23.46;43.85;101484.63;5046532;28;1960;-76
2023/06/12 07:47:05;;;;;;;;;;;;;;;23.53;44.13;101485.50;5053680;28;1334;-75
2023/06/12 07:49:30;;;;;;;;;;;;;;;23.61;43.84;101480.03;5042834;28;1298;-75
2023/06/12 07:51:56;;;;;;;;;;;;;;;23.66;43.69;101476.84;5048609;28;1122;-75
2023/06/12 07:54:21;;;;;;;;;;;;;;;23.73;43.63;101483.78;5052642;28;1277;-76
2023/06/12 07:56:46;;;;;;;;;;;;;;;23.82;43.14;101482.63;5046615;28;2095;-76
2023/06/12 07:59:12;;;;;;;;;;;;;;;23.89;43.20;101481.84;5055614;28;1504;-75
2023/06/12 08:01:37;;;;;;;;;;;;;;;23.95;43.15;101475.75;5031571;28;1398;-75
2023/06/12 08:04:06;;;;;;;;;;;;;;;24.03;43.06;101480.91;5033253;28;1949;-77
2023/06/12 08:06:34;;;;;;;;;;;;;;;24.14;42.93;101485.59;5030976;28;1412;-76
2023/06/12 08:08:59;;;;;;;;;;;;;;;24.27;42.40;101490.16;5027042;28;1249;-75
2023/06/12 08:11:25;;;;;;;;;;;;;;;24.32;42.61;101483.22;5040394;28;1583;-76
2023/06/12 08:13:50;;;;;;;;;;;;;;;24.41;41.85;101480.41;5031212;28;1289;-75
2023/06/12 08:16:16;;;;;;;;;;;;;;;24.47;41.61;101479.63;5043038;28;1382;-75
2023/06/12 08:18:42;;;;;;;;;;;;;;;24.55;42.27;101476.78;5031260;28;1499;-78
2023/06/12 08:21:07;;;;;;;;;;;;;;;24.66;41.98;101489.47;5047492;28;1330;-76
2023/06/12 08:23:33;;;;;;;;;;;;;;;24.74;41.69;101486.59;5047921;28;1890;-76
2023/06/12 08:25:58;;;;;;;;;;;;;;;24.84;41.96;101476.41;5052680;28;1213;-77
2023/06/12 08:28:23;;;;;;;;;;;;;;;24.93;41.93;101481.50;5050266;28;1224;-77
2023/06/12 08:30:50;;;;;;;;;;;;;;;25.02;41.17;101482.94;5043842;28;1362;-76
2023/06/12 08:33:16;;;;;;;;;;;;;;;25.12;40.98;101483.38;5031097;28;1298;-76
2023/06/12 08:35:41;;;;;;;;;;;;;;;25.25;41.36;101472.75;5046127;28;1412;-76
2023/06/12 08:38:06;;;;;;;;;;;;;;;25.35;41.82;101473.16;5048376;28;1282;-76
2023/06/12 08:40:32;;;;;;;;;;;;;;;25.50;40.47;101474.75;5027564;28;1664;-76
2023/06/12 08:42:58;;;;;;;;;;;;;;;25.62;40.63;101467.75;5048467;28;1926;-76
2023/06/12 08:45:26;;;;;;;;;;;;;;;25.69;38.23;101473.84;5027299;28;1344;-77
2023/06/12 08:47:52;;;;;;;;;;;;;;;25.77;39.90;101476.34;5031163;28;1320;-76
2023/06/12 08:50:18;;;;;;;;;;;;;;;25.85;39.67;101473.44;5030176;28;1400;-76
2023/06/12 08:52:44;;;;;;;;;;;;;;;25.89;39.50;101464.00;5060053;28;1106;-76
2023/06/12 08:55:11;;;;;;;;;;;;;;;26.00;38.17;101465.19;5057978;28;945;-76
2023/06/12 08:57:37;;;;;;;;;;;;;;;26.08;37.26;101467.59;5057290;28;1279;-76
2023/06/12 09:00:06;;;;;;;;;;;;;;;26.16;38.51;101474.53;5041063;28;1284;-76
2023/06/12 09:02:31;;;;;;;;;;;;;;;26.11;37.87;101466.38;5030829;28;1197;-76
2023/06/12 09:05:01;;;;;;;;;;;;;;;26.14;37.67;101476.56;5057227;28;1960;-76
2023/06/12 09:07:28;;;;;;;;;;;;;;;26.15;38.12;101465.75;5052953;28;1216;-76
2023/06/12 09:09:53;;;;;;;;;;;;;;;26.24;37.54;101470.81;5043010;28;1279;-76
2023/06/12 09:12:18;;;;;;;;;;;;;;;26.29;36.94;101463.81;5047656;28;1275;-77
2023/06/12 09:14:45;;;;;;;;;;;;;;;26.40;37.67;101460.47;5048710;28;1440;-76
2023/06/12 09:17:10;;;;;;;;;;;;;;;26.45;37.03;101462.53;5036970;28;1325;-76
2023/06/12 09:19:37;;;;;;;;;;;;;;;26.45;37.60;101462.53;5052056;28;1269;-76
2023/06/12 09:22:02;;;;;;;;;;;;;;;26.53;36.67;101453.47;5049243;28;1244;-76
2023/06/12 09:24:28;;;;;;;;;;;;;;;26.62;36.67;101454.84;5054150;28;1962;-77
2023/06/12 09:26:55;;;;;;;;;;;;;;;26.74;37.03;101455.78;5060903;28;1183;-76
2023/06/12 09:29:25;;;;;;;;;;;;;;;26.84;36.46;101455.25;5041671;28;1337;-76
2023/06/12 09:31:50;;;;;;;;;;;;;;;26.85;35.13;101457.72;5051811;28;1177;-76
2023/06/12 09:34:16;;;;;;;;;;;;;;;26.87;35.49;101453.00;5050586;28;1457;-76
2023/06/12 09:36:42;;;;;;;;;;;;;;;26.95;35.24;101458.06;5039007;28;1326;-76
2023/06/12 09:39:08;;;;;;;;;;;;;;;27.01;35.32;101443.03;5052283;28;1259;-77
2023/06/12 09:41:34;;;;;;;;;;;;;;;27.10;35.44;101447.09;5053870;28;1277;-76
2023/06/12 09:44:02;;;;;;;;;;;;;;;27.15;35.42;101441.09;5057926;28;1898;-77
2023/06/12 09:46:28;;;;;;;;;;;;;;;27.20;33.59;101442.06;5050902;28;1280;-77
2023/06/12 09:48:59;;;;;;;;;;;;;;;27.25;34.53;101446.75;5063408;28;1511;-77
2023/06/12 09:51:26;;;;;;;;;;;;;;;27.37;34.33;101444.97;5055145;28;1440;-77
2023/06/12 09:53:55;;;;;;;;;;;;;;;27.44;32.35;101456.38;5032717;28;1366;-76
2023/06/12 09:56:21;;;;;;;;;;;;;;;27.45;30.69;101446.53;5059701;28;1369;-76
2023/06/12 09:58:48;;;;;;;;;;;;;;;27.42;30.17;101450.47;5059403;28;1248;-76
2023/06/12 10:01:13;;;;;;;;;;;;;;;27.45;29.79;101451.84;5036098;28;1306;-76
2023/06/12 10:03:42;;;;;;;;;;;;;;;27.49;29.95;101459.19;5032277;28;1941;-77
2023/06/12 10:06:08;;;;;;;;;;;;;;;27.52;30.51;101448.06;5052409;28;1299;-76
2023/06/12 10:08:34;;;;;;;;;;;;;;;27.62;31.26;101446.75;5058539;28;1416;-76
2023/06/12 10:10:59;;;;;;;;;;;;;;;27.73;31.03;101448.69;5042155;28;1479;-75
2023/06/12 10:13:25;;;;;;;;;;;;;;;27.72;30.06;101452.41;5039456;28;1564;-76
2023/06/12 10:15:51;;;;;;;;;;;;;;;27.71;28.36;101456.13;5047199;28;1427;-76
2023/06/12 10:18:16;;;;;;;;;;;;;;;27.77;29.04;101450.69;5043241;28;942;-77
2023/06/12 10:20:42;;;;;;;;;;;;;;;27.81;28.66;101445.72;5049397;28;1339;-76
2023/06/12 10:23:08;;;;;;;;;;;;;;;27.91;29.10;101440.66;5044734;28;1913;-77
2023/06/12 10:25:33;;;;;;;;;;;;;;;28.02;29.58;101442.56;5048874;28;1155;-77
2023/06/12 10:27:59;;;;;;;;;;;;;;;28.18;29.16;101440.31;5045836;28;1297;-78
2023/06/12 10:30:24;;;;;;;;;;;;;;;28.27;29.26;101444.28;5048073;28;1330;-76
2023/06/12 10:32:50;;;;;;;;;;;;;;;28.27;28.42;101433.59;5048530;28;1315;-78
2023/06/12 10:35:29;;;;;;;;;;;;;;;28.31;29.02;101440.13;5050381;28;977;-77
2023/06/12 10:37:55;;;;;;;;;;;;;;;28.40;28.89;101437.97;5049176;28;1294;-76
2023/06/12 10:40:21;;;;;;;;;;;;;;;28.38;27.68;101435.53;5051132;28;1274;-76
2023/06/12 10:42:47;;;;;;;;;;;;;;;28.40;26.81;101428.13;5049939;28;1549;-76
2023/06/12 10:45:19;;;;;;;;;;;;;;;28.48;27.23;101430.44;5034668;28;1969;-76
2023/06/12 10:48:10;;;;;;;;;;;;;;;28.61;28.72;101428.59;5045853;28;1103;-76
2023/06/12 10:50:37;;;;;;;;;;;;;;;28.66;27.75;101428.72;5043292;28;1437;-77
2023/06/12 10:53:06;;;;;;;;;;;;;;;28.63;27.97;101427.34;5041303;28;1581;-76
2023/06/12 10:55:32;;;;;;;;;;;;;;;28.71;28.19;101423.50;5050152;28;1130;-77
2023/06/12 10:58:09;;;;;;;;;;;;;;;28.67;28.93;101419.66;5042529;28;1303;-77
2023/06/12 11:00:38;;;;;;;;;;;;;;;28.77;28.33;101414.56;5046450;28;1099;-76
2023/06/12 11:03:07;;;;;;;;;;;;;;;28.76;29.21;101420.97;5054612;28;1894;-77
2023/06/12 11:05:32;;;;;;;;;;;;;;;28.91;28.93;101418.66;5039851;28;1305;-77
2023/06/12 11:07:59;;;;;;;;;;;;;;;28.94;29.24;101423.53;5049023;28;1357;-77
2023/06/12 11:10:25;;;;;;;;;;;;;;;29.00;29.92;101406.59;5041912;28;1221;-77
2023/06/12 11:12:51;;;;;;;;;;;;;;;29.18;28.89;101412.84;5048588;28;1405;-77
2023/06/12 11:15:22;;;;;;;;;;;;;;;29.17;29.38;101412.03;5033814;28;2146;-77
2023/06/12 11:17:48;;;;;;;;;;;;;;;29.21;29.15;101407.03;5047494;28;1303;-77
2023/06/12 11:20:18;;;;;;;;;;;;;;;29.22;29.41;101414.00;5049163;28;1187;-77
2023/06/12 11:22:43;;;;;;;;;;;;;;;29.21;29.73;101399.03;5044670;28;1249;-78
2023/06/12 11:25:10;;;;;;;;;;;;;;;29.25;28.98;101402.88;5024251;28;1941;-78
2023/06/12 11:27:37;;;;;;;;;;;;;;;29.38;29.62;101407.13;5048890;28;1428;-77
2023/06/12 11:30:10;;;;;;;;;;;;;;;29.42;30.15;101402.91;5042834;28;1269;-77
2023/06/12 11:32:35;;;;;;;;;;;;;;;29.49;30.24;101399.09;5036529;28;1482;-76
2023/06/12 11:35:02;;;;;;;;;;;;;;;29.58;29.65;101397.66;5043721;28;1323;-76
2023/06/12 11:37:28;;;;;;;;;;;;;;;29.54;30.89;101393.06;5048361;28;1181;-76
2023/06/12 11:40:10;;;;;;;;;;;;;;;29.63;30.07;101387.06;5041080;28;1297;-76
2023/06/12 11:42:37;;;;;;;;;;;;;;;29.62;29.71;101398.00;5047407;28;1589;-76
2023/06/12 11:45:02;;;;;;;;;;;;;;;29.60;30.00;101384.09;5041208;28;2005;-76
2023/06/12 11:47:28;;;;;;;;;;;;;;;29.67;29.61;101383.94;5046358;28;1550;-76
2023/06/12 11:49:53;;;;;;;;;;;;;;;29.56;28.67;101373.06;5034096;28;1332;-76
2023/06/12 11:52:20;;;;;;;;;;;;;;;29.63;29.85;101378.25;5047978;28;1264;-77
2023/06/12 11:54:55;;;;;;;;;;;;;;;29.73;30.44;101377.63;5038773;28;1354;-76
2023/06/12 11:57:23;;;;;;;;;;;;;;;29.87;29.94;101373.59;5025034;28;1228;-77
2023/06/12 11:59:48;;;;;;;;;;;;;;;29.91;29.12;101369.41;5040413;28;1249;-77
2023/06/12 12:02:13;;;;;;;;;;;;;;;29.87;29.81;101368.25;5043907;28;1275;-77
2023/06/12 12:04:39;;;;;;;;;;;;;;;29.94;29.31;101374.28;5046799;28;1894;-77
2023/06/12 12:07:05;;;;;;;;;;;;;;;29.88;29.22;101372.56;5034976;28;1169;-76
2023/06/12 12:09:30;;;;;;;;;;;;;;;29.93;29.57;101366.47;5033270;28;1354;-77
2023/06/12 12:12:05;;;;;;;;;;;;;;;30.00;29.24;101365.31;5042783;28;1481;-77
2023/06/12 12:14:30;;;;;;;;;;;;;;;29.94;29.88;101368.94;5041783;28;1138;-77
2023/06/12 12:17:03;;;;;;;;;;;;;;;30.02;29.46;101370.41;5029607;28;1197;-76
2023/06/12 12:19:29;;;;;;;;;;;;;;;30.01;29.68;101369.59;5022151;28;1296;-76
2023/06/12 12:21:55;;;;;;;;;;;;;;;30.06;30.18;101377.72;5044906;28;1311;-76
2023/06/12 12:24:20;;;;;;;;;;;;;;;30.11;29.70;101367.13;5050141;28;1898;-76
2023/06/12 12:26:47;;;;;;;;;;;;;;;30.14;29.72;101363.94;5040372;28;1298;-76
2023/06/12 12:29:13;;;;;;;;;;;;;;;30.28;30.04;101358.28;5045771;28;1239;-77
2023/06/12 12:31:38;;;;;;;;;;;;;;;30.37;30.04;101362.19;5049359;28;1138;-76
2023/06/12 12:34:03;;;;;;;;;;;;;;;30.33;29.45;101355.69;5039259;28;1310;-77
2023/06/12 12:36:28;;;;;;;;;;;;;;;30.32;29.72;101354.06;5046940;28;987;-77
2023/06/12 12:38:53;;;;;;;;;;;;;;;30.28;30.19;101358.28;5046032;28;1094;-77
2023/06/12 12:41:19;;;;;;;;;;;;;;;30.20;29.37;101356.00;5045681;28;1291;-77
2023/06/12 12:43:44;;;;;;;;;;;;;;;30.24;29.64;101352.63;5045635;28;1902;-77